createdAt,value
2023-02-11T00:01:28.783Z,78.09
2023-02-11T00:04:02.201Z,78.23
2023-02-11T00:06:35.913Z,78.20
2023-02-11T00:09:08.201Z,78.03
2023-02-11T00:11:39.898Z,78.15
2023-02-11T00:14:13.122Z,78.09
2023-02-11T00:16:44.926Z,77.72
2023-02-11T00:19:16.607Z,77.78
2023-02-11T00:21:48.316Z,77.81
2023-02-11T00:24:19.949Z,77.67
2023-02-11T00:26:51.640Z,77.55
2023-02-11T00:29:23.273Z,77.38
2023-02-11T00:31:55.021Z,77.55
2023-02-11T00:34:27.863Z,77.39
2023-02-11T00:36:59.789Z,77.32
2023-02-11T00:39:31.818Z,77.18
2023-02-11T00:42:03.480Z,77.18
2023-02-11T00:44:35.197Z,77.04
2023-02-11T00:47:06.897Z,76.79
2023-02-11T00:49:40.327Z,76.70
2023-02-11T00:52:12.058Z,76.69
2023-02-11T00:54:43.914Z,76.40
2023-02-11T00:57:15.587Z,76.51
2023-02-11T00:59:47.408Z,76.32
2023-02-11T01:02:19.294Z,76.27
2023-02-11T01:04:50.954Z,76.17
2023-02-11T01:07:22.605Z,76.07
2023-02-11T01:09:54.292Z,76.09
2023-02-11T01:12:26.060Z,75.98
2023-02-11T01:14:57.867Z,75.84
2023-02-11T01:17:29.609Z,76.02
2023-02-11T01:20:02.888Z,75.84
2023-02-11T01:22:37.414Z,75.79
2023-02-11T01:25:10.441Z,75.65
2023-02-11T01:27:42.142Z,75.72
2023-02-11T01:30:16.006Z,75.73
2023-02-11T01:32:47.677Z,75.57
2023-02-11T01:35:19.476Z,75.67
2023-02-11T01:37:51.103Z,75.47
2023-02-11T01:40:23.085Z,75.41
2023-02-11T01:42:54.762Z,75.51
2023-02-11T01:45:49.001Z,75.54
2023-02-11T01:48:23.719Z,75.31
2023-02-11T01:50:58.831Z,75.47
2023-02-11T01:53:49.185Z,75.18
2023-02-11T01:56:40.524Z,75.33
2023-02-11T01:59:15.765Z,75.41
2023-02-11T02:01:50.352Z,75.22
2023-02-11T02:04:22.837Z,75.28
2023-02-11T02:06:57.795Z,75.29
2023-02-11T02:09:31.781Z,75.09
2023-02-11T02:12:03.504Z,75.05
2023-02-11T02:14:38.513Z,74.94
2023-02-11T02:17:08.994Z,75.02
2023-02-11T02:20:02.152Z,74.93
2023-02-11T02:23:12.234Z,74.75
2023-02-11T02:26:01.358Z,74.68
2023-02-11T02:28:46.322Z,74.81
2023-02-11T02:31:34.236Z,74.64
2023-02-11T02:34:10.420Z,74.52
2023-02-11T02:36:48.492Z,74.58
2023-02-11T02:39:23.726Z,74.71
2023-02-11T02:41:56.154Z,74.54
2023-02-11T02:44:28.211Z,74.60
2023-02-11T02:47:00.157Z,74.38
2023-02-11T02:49:31.892Z,74.44
2023-02-11T02:52:15.672Z,74.16
2023-02-11T02:55:09.934Z,74.04
2023-02-11T02:57:52.745Z,74.20
2023-02-11T03:00:29.777Z,74.02
2023-02-11T03:03:11.367Z,74.03
2023-02-11T03:05:50.361Z,73.96
2023-02-11T03:08:28.789Z,73.99
2023-02-11T03:11:00.818Z,74.27
2023-02-11T03:13:34.372Z,74.14
2023-02-11T03:16:10.558Z,74.04
2023-02-11T03:18:44.294Z,74.07
2023-02-11T03:21:17.770Z,73.73
2023-02-11T03:23:55.215Z,73.74
2023-02-11T03:26:32.088Z,73.70
2023-02-11T03:29:08.197Z,73.76
2023-02-11T03:31:46.014Z,73.85
2023-02-11T03:34:22.778Z,73.66
2023-02-11T03:36:57.325Z,73.71
2023-02-11T03:39:32.985Z,73.48
2023-02-11T03:42:05.799Z,73.59
2023-02-11T03:44:40.170Z,73.59
2023-02-11T03:47:13.264Z,73.32
2023-02-11T03:49:46.454Z,73.13
2023-02-11T03:52:18.490Z,73.22
2023-02-11T03:54:52.611Z,73.04
2023-02-11T03:57:24.473Z,72.96
2023-02-11T03:59:58.349Z,73.01
2023-02-11T04:02:32.694Z,72.32
2023-02-11T04:05:04.568Z,72.72
2023-02-11T04:07:36.540Z,72.59
2023-02-11T04:10:09.274Z,72.73
2023-02-11T04:12:41.031Z,72.49
2023-02-11T04:15:12.875Z,72.47
2023-02-11T04:17:45.325Z,72.19
2023-02-11T04:20:17.116Z,72.15
2023-02-11T04:22:48.791Z,71.86
2023-02-11T04:25:20.506Z,71.90
2023-02-11T04:27:52.210Z,71.99
2023-02-11T04:30:24.986Z,71.80
2023-02-11T04:32:56.671Z,71.86
2023-02-11T04:35:28.381Z,72.11
2023-02-11T04:38:00.010Z,71.61
2023-02-11T04:40:31.653Z,71.42
2023-02-11T04:43:03.355Z,71.44
2023-02-11T04:45:35.277Z,71.55
2023-02-11T04:48:07.284Z,71.73
2023-02-11T04:50:38.899Z,71.66
2023-02-11T04:53:10.564Z,71.78
2023-02-11T04:55:42.391Z,71.55
2023-02-11T04:58:14.061Z,71.43
2023-02-11T05:00:45.867Z,71.10
2023-02-11T05:03:17.651Z,71.40
2023-02-11T05:05:49.681Z,71.50
2023-02-11T05:08:21.602Z,71.44
2023-02-11T05:10:53.195Z,71.67
2023-02-11T05:13:24.869Z,71.60
2023-02-11T05:15:57.028Z,71.38
2023-02-11T05:18:28.870Z,71.43
2023-02-11T05:21:00.495Z,71.50
2023-02-11T05:23:32.165Z,71.50
2023-02-11T05:26:04.116Z,71.62
2023-02-11T05:28:35.935Z,71.71
2023-02-11T05:31:08.080Z,71.62
2023-02-11T05:33:39.797Z,71.14
2023-02-11T05:36:13.851Z,71.48
2023-02-11T05:38:45.681Z,71.54
2023-02-11T05:41:17.370Z,71.43
2023-02-11T05:43:51.051Z,71.35
2023-02-11T05:46:22.838Z,71.53
2023-02-11T05:48:56.641Z,71.48
2023-02-11T05:51:28.308Z,71.35
2023-02-11T05:53:59.904Z,71.20
2023-02-11T05:56:31.609Z,70.97
2023-02-11T05:59:03.500Z,70.93
2023-02-11T06:01:35.181Z,70.98
2023-02-11T06:04:06.914Z,70.96
2023-02-11T06:06:38.875Z,70.98
2023-02-11T06:09:11.873Z,70.98
2023-02-11T06:11:43.518Z,70.98
2023-02-11T06:14:15.425Z,71.02
2023-02-11T06:16:47.134Z,71.00
2023-02-11T06:19:18.952Z,70.99
2023-02-11T06:21:50.629Z,70.79
2023-02-11T06:24:44.301Z,70.61
2023-02-11T06:27:13.955Z,70.61
2023-02-11T06:29:45.854Z,70.55
2023-02-11T06:32:39.442Z,70.66
2023-02-11T06:35:11.957Z,70.59
2023-02-11T06:37:42.533Z,70.26
2023-02-11T06:40:14.917Z,70.07
2023-02-11T06:42:46.539Z,70.24
2023-02-11T06:45:18.453Z,70.20
2023-02-11T06:47:52.069Z,70.34
2023-02-11T06:50:23.904Z,69.90
2023-02-11T06:52:56.420Z,70.20
2023-02-11T06:55:28.788Z,69.93
2023-02-11T06:58:00.699Z,69.65
2023-02-11T07:00:32.625Z,69.67
2023-02-11T07:03:04.366Z,69.45
2023-02-11T07:05:38.267Z,69.46
2023-02-11T07:08:09.990Z,69.14
2023-02-11T07:10:41.920Z,69.13
2023-02-11T07:13:13.709Z,69.22
2023-02-11T07:15:45.509Z,68.74
2023-02-11T07:18:17.134Z,68.91
2023-02-11T07:20:48.918Z,68.65
2023-02-11T07:23:20.605Z,68.68
2023-02-11T07:25:52.483Z,69.26
2023-02-11T07:28:24.343Z,69.33
2023-02-11T07:30:56.153Z,68.83
2023-02-11T07:33:28.068Z,68.89
2023-02-11T07:36:02.721Z,68.95
2023-02-11T07:38:34.937Z,68.93
2023-02-11T07:41:09.398Z,69.34
2023-02-11T07:43:41.909Z,69.68
2023-02-11T07:46:15.042Z,69.51
2023-02-11T07:48:46.808Z,69.94
2023-02-11T07:51:19.929Z,69.95
2023-02-11T07:53:52.090Z,69.65
2023-02-11T07:56:24.317Z,70.13
2023-02-11T07:58:57.097Z,70.51
2023-02-11T08:01:29.302Z,70.88
2023-02-11T08:04:02.447Z,71.31
2023-02-11T08:06:35.561Z,71.37
2023-02-11T08:09:09.948Z,71.53
2023-02-11T08:11:41.881Z,71.99
2023-02-11T08:14:13.725Z,71.95
2023-02-11T08:16:45.444Z,72.33
2023-02-11T08:19:18.020Z,72.19
2023-02-11T08:21:49.677Z,72.45
2023-02-11T08:24:21.365Z,73.04
2023-02-11T08:26:53.094Z,73.19
2023-02-11T08:29:25.186Z,73.62
2023-02-11T08:31:56.871Z,74.55
2023-02-11T08:34:28.617Z,74.73
2023-02-11T08:37:00.286Z,75.29
2023-02-11T08:39:32.008Z,75.64
2023-02-11T08:42:03.721Z,76.06
2023-02-11T08:44:35.407Z,76.73
2023-02-11T08:47:07.123Z,76.85
2023-02-11T08:49:39.027Z,77.05
2023-02-11T08:52:10.740Z,77.38
2023-02-11T08:54:42.609Z,77.59
2023-02-11T08:57:14.331Z,78.17
2023-02-11T08:59:46.061Z,78.39
2023-02-11T09:02:17.840Z,78.41
2023-02-11T09:04:49.573Z,78.34
2023-02-11T09:07:21.277Z,78.84
2023-02-11T09:09:53.028Z,78.78
2023-02-11T09:12:24.667Z,79.09
2023-02-11T09:14:56.497Z,79.03
2023-02-11T09:17:28.168Z,79.32
2023-02-11T09:20:00.123Z,79.11
2023-02-11T09:22:31.865Z,79.08
2023-02-11T09:25:03.527Z,79.00
2023-02-11T09:27:35.244Z,79.24
2023-02-11T09:30:08.370Z,79.34
2023-02-11T09:32:40.136Z,79.08
2023-02-11T09:35:12.141Z,78.96
2023-02-11T09:37:43.830Z,78.97
2023-02-11T09:40:17.195Z,78.94
2023-02-11T09:42:50.962Z,79.09
2023-02-11T09:45:25.206Z,79.11
2023-02-11T09:48:00.435Z,79.14
2023-02-11T09:50:35.708Z,79.43
2023-02-11T09:53:11.219Z,79.23
2023-02-11T09:55:45.185Z,78.85
2023-02-11T09:58:18.996Z,79.03
2023-02-11T10:00:53.933Z,79.09
2023-02-11T10:03:46.029Z,78.97
2023-02-11T10:06:33.193Z,79.47
2023-02-11T10:09:12.724Z,79.59
2023-02-11T10:11:53.598Z,79.73
2023-02-11T10:14:38.022Z,80.16
2023-02-11T10:17:15.828Z,80.10
2023-02-11T10:20:01.328Z,80.59
2023-02-11T10:22:36.432Z,79.95
2023-02-11T10:25:23.699Z,80.23
2023-02-11T10:27:59.269Z,80.89
2023-02-11T10:30:34.185Z,80.54
2023-02-11T10:33:05.858Z,80.95
2023-02-11T10:35:37.572Z,81.04
2023-02-11T10:38:10.866Z,80.92
2023-02-11T10:40:43.077Z,81.66
2023-02-11T10:43:17.578Z,81.42
2023-02-11T10:45:51.923Z,81.51
2023-02-11T10:48:44.969Z,81.36
2023-02-11T10:51:20.606Z,81.17
2023-02-11T10:54:00.099Z,81.54
2023-02-11T10:56:33.935Z,81.64
2023-02-11T10:59:08.558Z,81.53
2023-02-11T11:01:46.896Z,81.37
2023-02-11T11:04:40.782Z,81.32
2023-02-11T11:07:24.044Z,81.39
2023-02-11T11:09:59.682Z,81.37
2023-02-11T11:12:40.325Z,81.50
2023-02-11T11:15:21.984Z,81.61
2023-02-11T11:18:20.803Z,81.64
2023-02-11T11:21:01.724Z,81.79
2023-02-11T11:23:33.498Z,81.25
2023-02-11T11:26:08.182Z,81.51
2023-02-11T11:28:44.314Z,81.67
2023-02-11T11:31:19.381Z,81.62
2023-02-11T11:33:51.849Z,81.79
2023-02-11T11:36:26.611Z,81.66
2023-02-11T11:39:00.348Z,81.49
2023-02-11T11:41:34.201Z,82.01
2023-02-11T11:44:25.287Z,82.23
2023-02-11T11:47:12.526Z,82.00
2023-02-11T11:49:49.689Z,82.03
2023-02-11T11:52:33.931Z,82.06
2023-02-11T11:55:12.981Z,81.85
2023-02-11T11:57:44.865Z,81.63
2023-02-11T12:00:22.991Z,81.99
2023-02-11T12:03:05.433Z,81.79
2023-02-11T12:05:43.122Z,82.15
2023-02-11T12:08:20.917Z,81.96
2023-02-11T12:10:59.573Z,82.39
2023-02-11T12:13:55.985Z,82.63
2023-02-11T12:16:34.662Z,82.18
2023-02-11T12:19:36.281Z,82.60
2023-02-11T12:22:13.250Z,82.34
2023-02-11T12:24:54.645Z,82.33
2023-02-11T12:27:38.509Z,82.46
2023-02-11T12:30:22.582Z,82.49
2023-02-11T12:32:59.790Z,82.45
2023-02-11T12:35:35.450Z,82.61
2023-02-11T12:38:18.888Z,82.87
2023-02-11T12:40:56.072Z,82.94
2023-02-11T12:43:34.598Z,82.39
2023-02-11T12:46:16.194Z,82.66
2023-02-11T12:49:10.467Z,82.93
2023-02-11T12:51:53.317Z,83.34
2023-02-11T12:54:28.552Z,82.61
2023-02-11T12:57:05.002Z,82.95
2023-02-11T12:59:49.890Z,82.81
2023-02-11T13:02:28.699Z,83.01
2023-02-11T13:05:03.425Z,82.71
2023-02-11T13:07:38.199Z,82.70
2023-02-11T13:10:23.062Z,82.85
2023-02-11T13:13:13.650Z,82.84
2023-02-11T13:15:46.530Z,82.78
2023-02-11T13:18:30.728Z,82.56
2023-02-11T13:21:15.596Z,82.70
2023-02-11T13:23:55.800Z,82.66
2023-02-11T13:26:32.974Z,82.65
2023-02-11T13:29:22.218Z,82.55
2023-02-11T13:31:58.026Z,82.33
2023-02-11T13:34:57.367Z,83.19
2023-02-11T13:37:31.370Z,82.62
2023-02-11T13:40:05.040Z,82.43
2023-02-11T13:42:50.644Z,82.95
2023-02-11T13:45:31.859Z,82.36
2023-02-11T13:48:05.768Z,82.58
2023-02-11T13:50:40.497Z,82.62
2023-02-11T13:53:10.678Z,82.62
2023-02-11T13:55:42.946Z,82.62
2023-02-11T13:58:32.472Z,82.89
2023-02-11T14:01:04.637Z,82.58
2023-02-11T14:03:55.838Z,82.73
2023-02-11T14:07:00.067Z,82.60
2023-02-11T14:09:40.961Z,82.62
2023-02-11T14:12:36.903Z,82.74
2023-02-11T14:15:30.399Z,82.84
2023-02-11T14:18:02.102Z,82.72
2023-02-11T14:20:39.820Z,82.91
2023-02-11T14:23:24.819Z,82.58
2023-02-11T14:26:10.123Z,82.54
2023-02-11T14:28:44.836Z,82.93
2023-02-11T14:31:15.460Z,82.55
2023-02-11T14:34:13.934Z,82.61
2023-02-11T14:36:55.942Z,82.53
2023-02-11T14:39:36.469Z,82.47
2023-02-11T14:42:08.766Z,82.42
2023-02-11T14:44:40.632Z,82.33
2023-02-11T14:47:20.995Z,82.20
2023-02-11T14:49:53.074Z,82.27
2023-02-11T14:52:29.985Z,82.43
2023-02-11T14:55:14.729Z,82.47
2023-02-11T14:57:49.479Z,82.18
2023-02-11T15:00:21.098Z,82.03
2023-02-11T15:02:53.847Z,82.11
2023-02-11T15:05:28.328Z,82.33
2023-02-11T15:08:02.491Z,82.62
2023-02-11T15:10:36.856Z,82.56
2023-02-11T15:13:08.668Z,82.64
2023-02-11T15:15:42.566Z,82.73
2023-02-11T15:18:22.798Z,82.83
2023-02-11T15:20:54.740Z,82.99
2023-02-11T15:23:28.525Z,83.16
2023-02-11T15:26:04.893Z,83.32
2023-02-11T15:28:39.209Z,83.34
2023-02-11T15:31:17.739Z,83.54
2023-02-11T15:33:49.764Z,83.56
2023-02-11T15:36:23.922Z,83.41
2023-02-11T15:39:20.376Z,83.94
2023-02-11T15:41:52.472Z,83.59
2023-02-11T15:44:31.861Z,83.71
2023-02-11T15:47:03.850Z,83.47
2023-02-11T15:49:35.648Z,83.79
2023-02-11T15:52:08.232Z,83.84
2023-02-11T15:54:41.948Z,83.57
2023-02-11T15:57:14.168Z,83.56
2023-02-11T15:59:49.579Z,83.67
2023-02-11T16:02:23.949Z,83.57
2023-02-11T16:04:58.056Z,83.22
2023-02-11T16:07:45.466Z,83.36
2023-02-11T16:10:25.658Z,83.38
2023-02-11T16:13:03.118Z,83.33
2023-02-11T16:15:45.371Z,83.43
2023-02-11T16:18:28.527Z,83.28
2023-02-11T16:21:15.712Z,83.14
2023-02-11T16:23:52.882Z,83.35
2023-02-11T16:26:28.162Z,83.36
2023-02-11T16:29:08.310Z,83.23
2023-02-11T16:31:41.795Z,83.31
2023-02-11T16:34:20.050Z,83.30
2023-02-11T16:36:52.363Z,83.38
2023-02-11T16:39:24.287Z,83.26
2023-02-11T16:41:56.308Z,83.95
2023-02-11T16:44:28.060Z,83.71
2023-02-11T16:47:01.453Z,83.70
2023-02-11T16:49:35.584Z,83.97
2023-02-11T16:52:09.843Z,83.70
2023-02-11T16:54:41.726Z,83.64
2023-02-11T16:57:17.614Z,83.80
2023-02-11T16:59:49.605Z,83.71
2023-02-11T17:02:31.451Z,83.66
2023-02-11T17:05:05.186Z,83.59
2023-02-11T17:07:36.981Z,83.66
2023-02-11T17:10:16.942Z,83.57
2023-02-11T17:12:49.011Z,83.37
2023-02-11T17:15:20.995Z,83.44
2023-02-11T17:17:52.721Z,83.33
2023-02-11T17:20:25.116Z,83.23
2023-02-11T17:22:56.928Z,83.06
2023-02-11T17:25:28.693Z,83.20
2023-02-11T17:28:00.468Z,83.28
2023-02-11T17:30:32.349Z,83.09
2023-02-11T17:33:04.109Z,83.18
2023-02-11T17:35:35.764Z,83.42
2023-02-11T17:38:07.703Z,83.28
2023-02-11T17:40:39.607Z,83.10
2023-02-11T17:43:11.334Z,83.14
2023-02-11T17:45:48.161Z,83.42
2023-02-11T17:48:25.701Z,83.32
2023-02-11T17:51:02.060Z,83.13
2023-02-11T17:53:53.138Z,83.23
2023-02-11T17:56:27.780Z,82.88
2023-02-11T17:58:59.682Z,83.21
2023-02-11T18:01:32.142Z,83.16
2023-02-11T18:04:04.682Z,83.19
2023-02-11T18:06:36.692Z,83.13
2023-02-11T18:09:08.625Z,83.13
2023-02-11T18:11:41.369Z,83.13
2023-02-11T18:14:13.785Z,83.03
2023-02-11T18:16:46.029Z,83.14
2023-02-11T18:19:18.892Z,82.90
2023-02-11T18:21:51.110Z,82.94
2023-02-11T18:24:22.925Z,82.81
2023-02-11T18:26:54.631Z,82.68
2023-02-11T18:29:26.378Z,82.76
2023-02-11T18:31:58.941Z,82.84
2023-02-11T18:34:31.743Z,82.85
2023-02-11T18:37:03.518Z,82.74
2023-02-11T18:39:35.270Z,82.70
2023-02-11T18:42:07.292Z,82.83
2023-02-11T18:44:39.432Z,82.81
2023-02-11T18:47:11.193Z,82.54
2023-02-11T18:49:42.956Z,82.85
2023-02-11T18:52:14.923Z,82.72
2023-02-11T18:54:46.653Z,82.75
2023-02-11T18:57:18.387Z,82.75
2023-02-11T18:59:50.639Z,83.05
2023-02-11T19:02:22.371Z,82.77
2023-02-11T19:04:54.266Z,82.71
2023-02-11T19:07:26.489Z,82.29
2023-02-11T19:09:58.179Z,83.07
2023-02-11T19:12:30.114Z,83.21
2023-02-11T19:15:02.104Z,82.93
2023-02-11T19:17:33.827Z,82.80
2023-02-11T19:20:06.526Z,82.82
2023-02-11T19:22:38.419Z,82.85
2023-02-11T19:25:11.086Z,82.78
2023-02-11T19:27:42.893Z,82.76
2023-02-11T19:30:15.537Z,82.68
2023-02-11T19:32:52.454Z,82.37
2023-02-11T19:35:24.607Z,82.62
2023-02-11T19:37:56.270Z,82.14
2023-02-11T19:40:28.310Z,82.35
2023-02-11T19:43:00.114Z,82.29
2023-02-11T19:45:32.450Z,82.11
2023-02-11T19:48:04.295Z,82.18
2023-02-11T19:50:35.998Z,81.98
2023-02-11T19:53:07.960Z,82.16
2023-02-11T19:55:40.005Z,81.97
2023-02-11T19:58:11.857Z,82.04
2023-02-11T20:00:43.588Z,82.92
2023-02-11T20:03:15.279Z,82.43
2023-02-11T20:05:47.876Z,82.14
2023-02-11T20:08:19.639Z,81.93
2023-02-11T20:10:51.282Z,81.67
2023-02-11T20:13:22.965Z,81.66
2023-02-11T20:15:55.050Z,81.74
2023-02-11T20:18:26.910Z,81.59
2023-02-11T20:21:00.247Z,81.44
2023-02-11T20:23:32.566Z,81.11
2023-02-11T20:26:09.827Z,81.23
2023-02-11T20:28:41.771Z,80.98
2023-02-11T20:31:14.267Z,80.91
2023-02-11T20:33:46.543Z,80.82
2023-02-11T20:36:20.070Z,81.30
2023-02-11T20:38:52.415Z,81.17
2023-02-11T20:41:25.835Z,81.03
2023-02-11T20:44:01.114Z,80.70
2023-02-11T20:46:34.906Z,81.38
2023-02-11T20:49:08.619Z,80.71
2023-02-11T20:51:40.818Z,80.43
2023-02-11T20:54:16.098Z,80.42
2023-02-11T20:56:48.638Z,80.47
2023-02-11T20:59:20.985Z,80.34
2023-02-11T21:01:55.500Z,80.18
2023-02-11T21:04:29.528Z,80.33
2023-02-11T21:07:02.848Z,80.29
2023-02-11T21:09:35.252Z,80.29
2023-02-11T21:12:08.295Z,80.32
2023-02-11T21:14:39.959Z,79.75
2023-02-11T21:17:13.021Z,80.49
2023-02-11T21:19:45.001Z,80.06
2023-02-11T21:22:17.752Z,79.78
2023-02-11T21:24:49.614Z,79.56
2023-02-11T21:27:21.239Z,79.09
2023-02-11T21:29:54.768Z,78.41
2023-02-11T21:32:26.562Z,80.58
2023-02-11T21:34:59.994Z,81.03
2023-02-11T21:37:31.299Z,80.12
2023-02-11T21:40:02.947Z,78.70
2023-02-11T21:42:34.584Z,77.86
2023-02-11T21:45:06.806Z,78.30
2023-02-11T21:47:38.944Z,77.07
2023-02-11T21:50:11.660Z,76.80
2023-02-11T21:52:43.329Z,75.82
2023-02-11T21:55:15.020Z,76.05
2023-02-11T21:57:46.826Z,77.16
2023-02-11T22:00:20.538Z,78.28
2023-02-11T22:02:52.204Z,75.85
2023-02-11T22:05:24.006Z,74.18
2023-02-11T22:07:55.656Z,73.19
2023-02-11T22:10:27.353Z,72.13
2023-02-11T22:12:59.020Z,71.72
2023-02-11T22:15:30.639Z,71.36
2023-02-11T22:18:02.352Z,71.39
2023-02-11T22:20:34.124Z,70.17
2023-02-11T22:23:05.806Z,70.64
2023-02-11T22:25:39.013Z,70.87
2023-02-11T22:28:10.673Z,71.09
2023-02-11T22:30:42.352Z,70.61
2023-02-11T22:33:14.024Z,69.27
2023-02-11T22:35:45.716Z,69.00
2023-02-11T22:38:17.548Z,69.52
2023-02-11T22:40:49.232Z,69.22
2023-02-11T22:43:20.910Z,68.86
2023-02-11T22:45:53.090Z,69.29
2023-02-11T22:48:27.190Z,69.08
2023-02-11T22:50:59.804Z,68.99
2023-02-11T22:53:31.463Z,69.09
2023-02-11T22:56:07.116Z,69.29
2023-02-11T22:58:39.251Z,68.50
2023-02-11T23:01:11.224Z,69.19
2023-02-11T23:03:43.129Z,69.18
2023-02-11T23:06:15.677Z,68.77
2023-02-11T23:08:47.644Z,69.54
2023-02-11T23:11:21.478Z,69.32
2023-02-11T23:13:54.409Z,69.15
2023-02-11T23:16:28.094Z,69.31
2023-02-11T23:19:01.717Z,69.66
2023-02-11T23:21:35.209Z,69.49
2023-02-11T23:24:09.061Z,69.83
2023-02-11T23:26:41.937Z,70.04
2023-02-11T23:29:14.044Z,69.90
2023-02-11T23:31:46.646Z,70.10
2023-02-11T23:34:23.837Z,69.86
2023-02-11T23:36:56.416Z,70.11
2023-02-11T23:39:28.203Z,70.26
2023-02-11T23:41:59.897Z,70.15
2023-02-11T23:44:31.780Z,70.00
2023-02-11T23:47:03.378Z,70.36
2023-02-11T23:49:34.984Z,70.25
2023-02-11T23:52:06.628Z,70.44
2023-02-11T23:54:38.270Z,70.87
2023-02-11T23:57:09.910Z,70.67
2023-02-11T23:59:43.149Z,70.41
